Мюнхен, Германия

31 01, 2015 22:04 CET (GMT +0100)
Riem | Change Station
CLOSE
Current Station
Личная Метеорологическая Станция
Location: Muenchen, BAYERN
Высота над уровнем моря: 1739 ft
Ближайшие Погодные Станции

В.н.у.м. 1739 ft 48.13 °N, 11.71 °E | Updated 53 seconds ago

Mostly Cloudy
Облачно
27.3 °F
Ощущается Как 27 °F
С
2.2
Ветер переменчевый Ветер от С-З
Gusts 3.1 миль/ч

Сегодня
Высокий -- | Низкий -- °F
--% Вероятн. осадков
Вчера
Высокий -- | Низкий -- °F
Precip. -- дюймов
7:43 AM 5:10 PM
Растущий месяц, 91% visible
Давление 29.15 дюймов
Видимость 6.2 милиь
Облачность Немного 3300 ft
Переменная Облачность 4000 ft
Облачно 5000 ft
Температура с учетом ветра 27 °F
Точка Росы 20 °F
Влажность воздуха 73%
Дождь 0.00 дюймов
Глубина снега Нет в наличии.
УФ 0 из 12
Пыльца Нет в наличии.
Качество воздуха Нет в наличии.
Flu Activity Нет в наличии.
METAR EDDM 312050Z VRB02KT 9999 FEW033 SCT040 BKN050 M02/M04 Q0987 NOSIG

More Conditions Fewer Conditions

Давление 29.15 дюймов
Видимость 6.2 милиь
Облачность Немного 3300 ft
Переменная Облачность 4000 ft
Облачно 5000 ft
Температура с учетом ветра 27 °F
Точка Росы 20 °F
Влажность воздуха 73%
Дождь 0.00 дюймов
Глубина снега Нет в наличии.
УФ 0 из 12
Пыльца Нет в наличии.
Качество воздуха Нет в наличии.
Flu Activity Нет в наличии.
METAR EDDM 312050Z VRB02KT 9999 FEW033 SCT040 BKN050 M02/M04 Q0987 NOSIG

More Conditions Fewer Conditions

10-Day Weather Forecast

Almanac

Астрономические явления

Jan. 31, 2015 Восход Закат
Настоящее время
Гражданские сумерки
Навигационные сумерки
Астрономические сумерки
Луна
Длительность светового времени
Продолжительность Дня
Tomorrow will be .
, % of the Moon is Illuminated

Сегодняшние Экстремальные Показания

Country Highs Country Lows

Community

WunderPhotos

Upload Photos

1,792,204 фотографии загружены!

WunderBlogs® & News

Nearby

Качество воздуха

  Качество воздуха Индекс AQ Загрязнитель
Not available.

Глубина Снега

Station Depth Высота над уровнем моря

Сейсмическая активность

Город Distance Mag. Time & Date
Minimum magnitude displayed is 2.5.

Температура Прибрежных Вод

Место Температура

Ближайшие Погодные Станции